Cheikh El Mokrani — C6WD5 — position and weather

sailwx.info

Track history (hours):
 
Tides and Currents Weather Stations Pressure Air Temp Water Temp Dewpoint Dewpoint Depression Visibility Wind Speed Wind Dir Waves Ship Positions

Cheikh El Mokrani

Last reported at 2017-Mar-22 21:34 UTC. Time now 2017-Mar-23 12:27 UTC.
Position N 43°13' E 005°00'.

Length 220 m; draft 8.2 m.

Type: Ship (hazmat cat D). MMSI: 309979000.

Date/timePositionNaut miles runAvg speedWind from/ knotsBaromVisibWave heightAir tempDewpointWater temp
2017-Mar-22 21:34N 43°13' E 005°00'9 9.4
2017-Mar-22 20:33N 43°23' E 004°58'6 0.2
2017-Mar-21 15:18N 43°27' E 004°51'4 5.5
2017-Mar-21 14:34N 43°24' E 004°55'8 7.9
2017-Mar-21 13:32N 43°17' E 005°00'6 6.1
2017-Mar-21 12:31N 43°11' E 005°03'9 6.3
2017-Mar-21 11:04N 43°02' E 005°06'17 8.4
2017-Mar-21 09:04N 42°46' E 005°11'356 7.5
2017-Mar-19 09:26N 36°60' E 006°59'5912.1
2017-Mar-19 04:33N 37°58' E 006°46'32816.4
2017-Mar-18 08:33N 43°15' E 004°60'1010.1
2017-Mar-18 07:34N 43°24' E 004°54'0 0.0
2017-Mar-17 17:20N 43°25' E 004°54'0 0.0
2017-Mar-17 15:23N 43°25' E 004°54'0 0.0
2017-Mar-17 14:32N 43°25' E 004°54'0 0.0
2017-Mar-17 13:26N 43°25' E 004°54'0 0.0
2017-Mar-17 12:26N 43°25' E 004°54'0 0.0
2017-Mar-17 11:20N 43°25' E 004°54'0 0.0
2017-Mar-17 10:29N 43°25' E 004°54'0 0.0
2017-Mar-17 09:34N 43°25' E 004°54'0 0.0
2017-Mar-17 08:34N 43°25' E 004°54'3 3.0
2017-Mar-17 07:33N 43°23' E 004°57'9 8.6
2017-Mar-17 06:33N 43°15' E 005°01'5 5.4
2017-Mar-17 05:33N 43°10' E 005°03'3 3.3
2017-Mar-17 04:33N 43°07' E 005°04'4 4.0
2017-Mar-17 03:34N 43°03' E 005°05'1 0.6
2017-Mar-17 02:33N 43°03' E 005°05'4 4.1
2017-Mar-17 01:33N 43°07' E 005°04'4 3.9
2017-Mar-17 00:33N 43°03' E 005°05'7 7.2
2017-Mar-16 23:33N 42°56' E 005°08'9 9.1
2017-Mar-16 22:33N 42°47' E 005°11'1110.7
2017-Mar-16 21:33N 42°37' E 005°15'1313.4
2017-Mar-16 20:34N 42°24' E 005°20'1414.3
2017-Mar-16 19:34N 42°10' E 005°25'1514.4
2017-Mar-16 18:33N 41°56' E 005°29'1514.7
2017-Mar-16 17:33N 41°42' E 005°34'1614.2
2017-Mar-16 16:28N 41°27' E 005°39'1314.0
2017-Mar-16 15:33N 41°15' E 005°43'3114.3
2017-Mar-16 13:22N 40°44' E 005°53'1315.0
2017-Mar-16 12:31N 40°32' E 005°58'  
2017-Mar-14 03:14N 42°17' E 005°20'1116.0
2017-Mar-14 02:34N 42°28' E 005°17'1616.3
2017-Mar-14 01:34N 42°43' E 005°11'1616.3
2017-Mar-14 00:34N 42°59' E 005°06'1615.6
2017-Mar-13 23:33N 43°14' E 005°00'1110.7
2017-Mar-13 22:34N 43°24' E 004°54'4 3.6
2017-Mar-13 21:32N 43°27' E 004°51'0 0.0
2017-Mar-13 20:29N 43°27' E 004°51'0 0.0
2017-Mar-13 19:32N 43°27' E 004°51'0 0.0
2017-Mar-13 18:23N 43°27' E 004°51'0 0.0
2017-Mar-13 17:29N 43°27' E 004°51'0 0.0
2017-Mar-13 16:32N 43°27' E 004°51'  
Track history (hours):
 
Tides and Currents Weather Stations Pressure Air Temp Water Temp Dewpoint Dewpoint Depression Visibility Wind Speed Wind Dir Waves Ship Positions

Cheikh El Mokrani

Last reported at 2017-Mar-22 21:34 UTC. Time now 2017-Mar-23 12:27 UTC.
Position N 43°13' E 005°00'.

Length 220 m; draft 8.2 m.

Type: Ship (hazmat cat D). MMSI: 309979000.

Date/timePositionNaut miles runAvg speedWind from/ knotsBaromVisibWave heightAir tempDewpointWater temp
2017-Mar-22 21:34N 43°13' E 005°00'9 9.4
2017-Mar-22 20:33N 43°23' E 004°58'6 0.2
2017-Mar-21 15:18N 43°27' E 004°51'4 5.5
2017-Mar-21 14:34N 43°24' E 004°55'8 7.9
2017-Mar-21 13:32N 43°17' E 005°00'6 6.1
2017-Mar-21 12:31N 43°11' E 005°03'9 6.3
2017-Mar-21 11:04N 43°02' E 005°06'17 8.4
2017-Mar-21 09:04N 42°46' E 005°11'356 7.5
2017-Mar-19 09:26N 36°60' E 006°59'5912.1
2017-Mar-19 04:33N 37°58' E 006°46'32816.4
2017-Mar-18 08:33N 43°15' E 004°60'1010.1
2017-Mar-18 07:34N 43°24' E 004°54'0 0.0
2017-Mar-17 17:20N 43°25' E 004°54'0 0.0
2017-Mar-17 15:23N 43°25' E 004°54'0 0.0
2017-Mar-17 14:32N 43°25' E 004°54'0 0.0
2017-Mar-17 13:26N 43°25' E 004°54'0 0.0
2017-Mar-17 12:26N 43°25' E 004°54'0 0.0
2017-Mar-17 11:20N 43°25' E 004°54'0 0.0
2017-Mar-17 10:29N 43°25' E 004°54'0 0.0
2017-Mar-17 09:34N 43°25' E 004°54'0 0.0
2017-Mar-17 08:34N 43°25' E 004°54'3 3.0
2017-Mar-17 07:33N 43°23' E 004°57'9 8.6
2017-Mar-17 06:33N 43°15' E 005°01'5 5.4
2017-Mar-17 05:33N 43°10' E 005°03'3 3.3
2017-Mar-17 04:33N 43°07' E 005°04'4 4.0
2017-Mar-17 03:34N 43°03' E 005°05'1 0.6
2017-Mar-17 02:33N 43°03' E 005°05'4 4.1
2017-Mar-17 01:33N 43°07' E 005°04'4 3.9
2017-Mar-17 00:33N 43°03' E 005°05'7 7.2
2017-Mar-16 23:33N 42°56' E 005°08'9 9.1
2017-Mar-16 22:33N 42°47' E 005°11'1110.7
2017-Mar-16 21:33N 42°37' E 005°15'1313.4
2017-Mar-16 20:34N 42°24' E 005°20'1414.3
2017-Mar-16 19:34N 42°10' E 005°25'1514.4
2017-Mar-16 18:33N 41°56' E 005°29'1514.7
2017-Mar-16 17:33N 41°42' E 005°34'1614.2
2017-Mar-16 16:28N 41°27' E 005°39'1314.0
2017-Mar-16 15:33N 41°15' E 005°43'3114.3
2017-Mar-16 13:22N 40°44' E 005°53'1315.0
2017-Mar-16 12:31N 40°32' E 005°58'  
2017-Mar-14 03:14N 42°17' E 005°20'1116.0
2017-Mar-14 02:34N 42°28' E 005°17'1616.3
2017-Mar-14 01:34N 42°43' E 005°11'1616.3
2017-Mar-14 00:34N 42°59' E 005°06'1615.6
2017-Mar-13 23:33N 43°14' E 005°00'1110.7
2017-Mar-13 22:34N 43°24' E 004°54'4 3.6
2017-Mar-13 21:32N 43°27' E 004°51'0 0.0
2017-Mar-13 20:29N 43°27' E 004°51'0 0.0
2017-Mar-13 19:32N 43°27' E 004°51'0 0.0
2017-Mar-13 18:23N 43°27' E 004°51'0 0.0
2017-Mar-13 17:29N 43°27' E 004°51'0 0.0
2017-Mar-13 16:32N 43°27' E 004°51'  

Dump ship's entire track history